ADDS METAR Data INFO
IDs: Format: Raw Decoded Include TAF

Data at: 2312 UTC 16 Jan 2018

KSAF 162253Z 00000KT 10SM CLR 00/M09 A3035 RMK AO2 SLP297 T00001089
KSAF 162153Z 21004KT 10SM CLR 00/M09 A3036 RMK AO2 SLP300 T00001089
KSAF 162053Z VRB03KT 10SM CLR M01/M09 A3038 RMK AO2 SLP310 T10111089 56026
KSAF 162002Z 00000KT 10SM SCT024 M03/M09 A3040 RMK AO2 T10281089
KSAF 161953Z 11004KT 10SM BKN024 M03/M09 A3041 RMK AO2 SLP325 T10331089
KSAF 161853Z 00000KT 10SM OVC021 M04/M09 A3045 RMK AO2 SLP340 T10441094
KSAF 161753Z 17006KT 10SM OVC021 M05/M09 A3048 RMK AO2 SLP350 T10501094 11050 21072 50007
KSAF 161653Z 17007KT 10SM OVC021 M06/M10 A3049 RMK AO2 SLP359 T10611100
KSAF 161553Z 18007KT 10SM OVC022 M07/M09 A3047 RMK AO2 SLP351 T10671094
KSAF 161453Z 16004KT 10SM OVC018 M07/M09 A3045 RMK AO2 SLP341 T10671094 53007
KSAF 161353Z 14006KT 10SM OVC019 M07/M09 A3043 RMK AO2 SLP335 T10721094
KSAF 161253Z AUTO 16009KT 10SM OVC018 M07/M09 A3042 RMK AO2 SLP329 T10721094
KSAF 161153Z AUTO 16011KT 10SM OVC018 M07/M09 A3043 RMK AO2 SLP324 T10721094 11056 21072 50000
KSAF 161053Z AUTO 16008KT 10SM OVC018 M07/M09 A3043 RMK AO2 SLP316 T10671094
KSAF 161004Z AUTO 15012KT 10SM OVC017 M07/M09 A3044 RMK AO2 T10721094
KSAF 160953Z AUTO 15012KT 10SM BKN013 OVC021 M07/M09 A3044 RMK AO2 SLP315 T10721094
KSAF 160853Z AUTO 15016KT 10SM OVC014 M07/M09 A3043 RMK AO2 SLP305 T10721094 51005
KSAF 160849Z AUTO 15016KT 10SM OVC014 M07/M09 A3042 RMK AO2
KSAF 160753Z AUTO 16015G21KT 10SM OVC021 M07/M09 A3041 RMK AO2 SLP297 T10671094
KSAF 160653Z AUTO 14016KT 10SM OVC023 M06/M09 A3041 RMK AO2 PK WND 13027/0605 SLP296 T10611089 400721083
KSAF 160553Z AUTO 13017KT 10SM OVC023 M06/M09 A3040 RMK AO2 PK WND 14027/0459 SLP297 T10561089 10000 21056 51021
KSAF 160453Z AUTO 14018G26KT 10SM OVC022 M05/M08 A3039 RMK AO2 PK WND 15031/0411 SLP298 T10501083
KSAF 160353Z AUTO 14020G27KT 10SM OVC020 M04/M07 A3037 RMK AO2 PK WND 13029/0310 SLP299 T10441072
KSAF 160253Z 13021G27KT 10SM OVC020 M03/M06 A3033 RMK AO2 PK WND 13028/0227 SLP292 T10331061 51016
KSAF 160153Z 13020G25KT 10SM BKN020 M03/M05 A3031 RMK AO2 PK WND 13029/0056 SLP285 T10281050
KSAF 160148Z 13017G25KT 10SM BKN020 M03/M05 A3031 RMK AO2 PK WND 13029/0056
KSAF 160053Z 13021G29KT 10SM CLR M02/M04 A3027 RMK AO2 PK WND 13029/0048 SLP270 T10221044
KSAF 152353Z 13019G25KT 10SM CLR 00/M05 A3025 RMK AO2 PK WND 13029/2302 SLP259 T00001050 10072 20000 53019
KSAF 152253Z 14022G27KT 10SM CLR 03/M05 A3021 RMK AO2 PK WND 13030/2211 SLP233 T00331050
KSAF 152153Z 14022G30KT 10SM CLR 04/M05 A3019 RMK AO2 PK WND 14030/2147 SLP230 T00441050
KSAF 152053Z 14020G26KT 10SM CLR 07/M06 A3019 RMK AO2 PK WND 14031/2040 SLP208 T00671056 56019
KSAF 151953Z 14018G25KT 10SM CLR 07/M07 A3019 RMK AO2 SLP215 T00721067
KSAF 151853Z 16016KT 10SM CLR 07/M08 A3022 RMK AO2 SLP226 T00671083
KSAF 151753Z 18008KT 10SM CLR 05/M07 A3025 RMK AO2 SLP234 T00501067 10050 21056 50013
KSAF 151653Z 04007KT 10SM CLR 03/M07 A3026 RMK AO2 SLP246 T00281072
KSAF 151553Z 01008KT 10SM CLR M02/M08 A3023 RMK AO2 SLP251 T10171083
KSAF 151453Z 03007KT 10SM CLR M04/M09 A3021 RMK AO2 SLP234 T10441094 51001
KSAF 151353Z AUTO 01009KT 10SM CLR M05/M09 A3021 RMK AO2 SLP225 T10501094
KSAF 151253Z AUTO 36008KT 10SM CLR M05/M09 A3021 RMK AO2 SLP219 T10501094
KSAF 151153Z AUTO 01010KT 10SM CLR M06/M09 A3020 RMK AO2 SLP217 T10561094 10011 21083 58009